Map

Track Data

SID SEASON NUMBER BASIN SUBBASIN NAME ISO_TIME NATURE LAT LON WMO_WIND WMO_PRES WMO_AGENCY TRACK_TYPE DIST2LAND LANDFALL IFLAG USA_AGENCY USA_ATCF_ID USA_LAT USA_LON USA_RECORD USA_STATUS USA_WIND USA_PRES USA_SSHS USA_R34_NE USA_R34_SE USA_R34_SW USA_R34_NW USA_R50_NE USA_R50_SE USA_R50_SW USA_R50_NW USA_R64_NE USA_R64_SE USA_R64_SW USA_R64_NW USA_POCI USA_ROCI USA_RMW USA_EYE TOKYO_LAT TOKYO_LON TOKYO_GRADE TOKYO_WIND TOKYO_PRES TOKYO_R50_DIR TOKYO_R50_LONG TOKYO_R50_SHORT TOKYO_R30_DIR TOKYO_R30_LONG TOKYO_R30_SHORT TOKYO_LAND CMA_LAT CMA_LON CMA_CAT CMA_WIND CMA_PRES HKO_LAT HKO_LON HKO_CAT HKO_WIND HKO_PRES NEWDELHI_LAT NEWDELHI_LON NEWDELHI_GRADE NEWDELHI_WIND NEWDELHI_PRES NEWDELHI_CI NEWDELHI_DP NEWDELHI_POCI REUNION_LAT REUNION_LON REUNION_TYPE REUNION_WIND REUNION_PRES REUNION_TNUM REUNION_CI REUNION_RMW REUNION_R34_NE REUNION_R34_SE REUNION_R34_SW REUNION_R34_NW REUNION_R50_NE REUNION_R50_SE REUNION_R50_SW REUNION_R50_NW REUNION_R64_NE REUNION_R64_SE REUNION_R64_SW REUNION_R64_NW BOM_LAT BOM_LON BOM_TYPE BOM_WIND BOM_PRES BOM_TNUM BOM_CI BOM_RMW BOM_R34_NE BOM_R34_SE BOM_R34_SW BOM_R34_NW BOM_R50_NE BOM_R50_SE BOM_R50_SW BOM_R50_NW BOM_R64_NE BOM_R64_SE BOM_R64_SW BOM_R64_NW BOM_ROCI BOM_POCI BOM_EYE BOM_POS_METHOD BOM_PRES_METHOD NADI_LAT NADI_LON NADI_CAT NADI_WIND NADI_PRES WELLINGTON_LAT WELLINGTON_LON WELLINGTON_WIND WELLINGTON_PRES DS824_LAT DS824_LON DS824_STAGE DS824_WIND DS824_PRES TD9636_LAT TD9636_LON TD9636_STAGE TD9636_WIND TD9636_PRES TD9635_LAT TD9635_LON TD9635_WIND TD9635_PRES TD9635_ROCI NEUMANN_LAT NEUMANN_LON NEUMANN_CLASS NEUMANN_WIND NEUMANN_PRES MLC_LAT MLC_LON MLC_CLASS MLC_WIND MLC_PRES USA_GUST BOM_GUST BOM_GUST_PER REUNION_GUST REUNION_GUST_PER USA_SEAHGT USA_SEARAD_NE USA_SEARAD_SE USA_SEARAD_SW USA_SEARAD_NW STORM_SPEED STORM_DIR
1910080S12048 1910 15 SI MM NOT_NAMED 1910-03-21 06:00:00 NR -11.9000 47.7000 reunion main 137 132 _____O________ -1 -11.9000 47.7000 99 9.90000 2 220
1910080S12048 1910 15 SI MM NOT_NAMED 1910-03-21 09:00:00 NR -11.9679 47.6474 main 141 141 _____P________ -1 -11.9679 47.6474 99 2 217
1910080S12048 1910 15 SI MM NOT_NAMED 1910-03-21 12:00:00 NR -12.0376 47.5927 main 141 137 _____P________ -1 -12.0376 47.5927 99 2 218
1910080S12048 1910 15 SI MM NOT_NAMED 1910-03-21 15:00:00 NR -12.1111 47.5337 main 148 145 _____P________ -1 -12.1111 47.5337 99 2 218
1910080S12048 1910 15 SI MM NOT_NAMED 1910-03-21 18:00:00 NR -12.1901 47.4683 main 145 145 _____P________ -1 -12.1901 47.4683 99 2 220
1910080S12048 1910 15 SI MM NOT_NAMED 1910-03-21 21:00:00 NR -12.2767 47.3944 main 153 153 _____P________ -1 -12.2767 47.3944 99 2 220
1910080S12048 1910 15 SI MM NOT_NAMED 1910-03-22 00:00:00 NR -12.3726 47.3098 main 154 150 _____P________ -1 -12.3726 47.3098 99 3 221
1910080S12048 1910 15 SI MM NOT_NAMED 1910-03-22 03:00:00 NR -12.4798 47.2124 main 150 148 _____P________ -1 -12.4798 47.2124 99 3 222
1910080S12048 1910 15 SI MM NOT_NAMED 1910-03-22 06:00:00 NR -12.6000 47.1000 reunion main 148 140 _____O________ -1 -12.6000 47.1000 99 9.90000 3 223
1910080S12048 1910 15 SI MM NOT_NAMED 1910-03-22 09:00:00 NR -12.7350 46.9707 main 147 140 _____P________ -1 -12.7350 46.9707 99 4 223
1910080S12048 1910 15 SI MM NOT_NAMED 1910-03-22 12:00:00 NR -12.8862 46.8232 main 149 142 _____P________ -1 -12.8862 46.8232 99 4 224
1910080S12048 1910 15 SI MM NOT_NAMED 1910-03-22 15:00:00 NR -13.0547 46.6567 main 146 146 _____P________ -1 -13.0547 46.6567 99 5 224
1910080S12048 1910 15 SI MM NOT_NAMED 1910-03-22 18:00:00 NR -13.2418 46.4699 main 161 157 _____P________ -1 -13.2418 46.4699 99 6 224
1910080S12048 1910 15 SI MM NOT_NAMED 1910-03-22 21:00:00 NR -13.4486 46.2620 main 176 176 _____P________ -1 -13.4486 46.2620 99 6 224
1910080S12048 1910 15 SI MM NOT_NAMED 1910-03-23 00:00:00 NR -13.6765 46.0318 main 194 184 _____P________ -1 -13.6765 46.0318 99 7 225
1910080S12048 1910 15 SI MM NOT_NAMED 1910-03-23 03:00:00 NR -13.9265 45.7782 main 188 172 _____P________ -1 -13.9265 45.7782 99 7 225
1910080S12048 1910 15 SI MM NOT_NAMED 1910-03-23 06:00:00 NR -14.2000 45.5000 reunion main 179 162 _____O________ -1 -14.2000 45.5000 99 9.90000 8 227
1910080S12048 1910 15 SI MM NOT_NAMED 1910-03-23 09:00:00 NR -14.4895 45.1629 main 162 138 _____P________ -1 -14.4895 45.1629 99 9 229
1910080S12048 1910 15 SI MM NOT_NAMED 1910-03-23 12:00:00 NR -14.8036 44.7939 main 138 119 _____P________ -1 -14.8036 44.7939 99 10 228
1910080S12048 1910 15 SI MM NOT_NAMED 1910-03-23 15:00:00 NR -15.1385 44.4050 main 125 95 _____P________ -1 -15.1385 44.4050 99 10 228
1910080S12048 1910 15 SI MM NOT_NAMED 1910-03-23 18:00:00 NR -15.4906 44.0088 main 99 92 _____P________ -1 -15.4906 44.0088 99 10 227
1910080S12048 1910 15 SI MM NOT_NAMED 1910-03-23 21:00:00 NR -15.8562 43.6176 main 96 96 _____P________ -1 -15.8562 43.6176 99 10 225
1910080S12048 1910 15 SI MM NOT_NAMED 1910-03-24 00:00:00 NR -16.2320 43.2439 main 128 128 _____P________ -1 -16.2320 43.2439 99 10 222
1910080S12048 1910 15 SI MM NOT_NAMED 1910-03-24 03:00:00 NR -16.6143 42.9005 main 144 138 _____P________ -1 -16.6143 42.9005 99 10 219
1910080S12048 1910 15 SI MM NOT_NAMED 1910-03-24 06:00:00 NR -17.0000 42.6000 reunion main 148 145 _____O________ -1 -17.0000 42.6000 99 9.90000 9 216
1910080S12048 1910 15 SI MM NOT_NAMED 1910-03-24 09:00:00 NR -17.3613 42.3409 main 170 169 _____P________ -1 -17.3613 42.3409 99 9 212
1910080S12048 1910 15 SI MM NOT_NAMED 1910-03-24 12:00:00 NR -17.7277 42.1167 main 192 192 _____P________ -1 -17.7277 42.1167 99 8 208
1910080S12048 1910 15 SI MM NOT_NAMED 1910-03-24 15:00:00 NR -18.1004 41.9291 main 221 221 _____P________ -1 -18.1004 41.9291 99 8 203
1910080S12048 1910 15 SI MM NOT_NAMED 1910-03-24 18:00:00 NR -18.4807 41.7797 main 232 232 _____P________ -1 -18.4807 41.7797 99 8 198
1910080S12048 1910 15 SI MM NOT_NAMED 1910-03-24 21:00:00 NR -18.8697 41.6703 main 248 248 _____P________ -1 -18.8697 41.6703 99 8 192
1910080S12048 1910 15 SI MM NOT_NAMED 1910-03-25 00:00:00 NR -19.2685 41.6026 main 271 269 _____P________ -1 -19.2685 41.6026 99 8 186
1910080S12048 1910 15 SI MM NOT_NAMED 1910-03-25 03:00:00 NR -19.6782 41.5786 main 269 245 _____P________ -1 -19.6782 41.5786 99 8 182
1910080S12048 1910 15 SI MM NOT_NAMED 1910-03-25 06:00:00 NR -20.1000 41.6000 reunion main 245 221 _____O________ -1 -20.1000 41.6000 99 9.90000 9 178
1910080S12048 1910 15 SI MM NOT_NAMED 1910-03-25 09:00:00 NR -20.5701 41.6221 main 216 191 _____P________ -1 -20.5701 41.6221 99 10 175
1910080S12048 1910 15 SI MM NOT_NAMED 1910-03-25 12:00:00 NR -21.0573 41.6902 main 189 164 _____P________ -1 -21.0573 41.6902 99 10 170
1910080S12048 1910 15 SI MM NOT_NAMED 1910-03-25 15:00:00 NR -21.5521 41.8033 main 159 125 _____P________ -1 -21.5521 41.8033 99 10 166
1910080S12048 1910 15 SI MM NOT_NAMED 1910-03-25 18:00:00 NR -22.0447 41.9601 main 125 113 _____P________ -1 -22.0447 41.9601 99 10 161
1910080S12048 1910 15 SI MM NOT_NAMED 1910-03-25 21:00:00 NR -22.5256 42.1595 main 105 102 _____P________ -1 -22.5256 42.1595 99 10 157
1910080S12048 1910 15 SI MM NOT_NAMED 1910-03-26 00:00:00 NR -22.9849 42.4002 main 104 92 _____P________ -1 -22.9849 42.4002 99 10 152
1910080S12048 1910 15 SI MM NOT_NAMED 1910-03-26 03:00:00 NR -23.4130 42.6809 main 92 62 _____P________ -1 -23.4130 42.6809 99 10 146
1910080S12048 1910 15 SI MM NOT_NAMED 1910-03-26 06:00:00 NR -23.8000 43.0000 reunion main 62 30 _____O________ -1 -23.8000 43.0000 99 9.90000 10 139
1910080S12048 1910 15 SI MM NOT_NAMED 1910-03-26 09:00:00 NR -24.1464 43.3877 main 30 0 _____P________ -1 -24.1464 43.3877 99 10 131
1910080S12048 1910 15 SI MM NOT_NAMED 1910-03-26 12:00:00 NR -24.4563 43.8261 main 0 0 _____P________ -1 -24.4563 43.8261 99 10 125
1910080S12048 1910 15 SI MM NOT_NAMED 1910-03-26 15:00:00 NR -24.7304 44.2972 main 0 0 _____P________ -1 -24.7304 44.2972 99 10 121
1910080S12048 1910 15 SI MM NOT_NAMED 1910-03-26 18:00:00 NR -24.9695 44.7828 main 0 0 _____P________ -1 -24.9695 44.7828 99 10 117
1910080S12048 1910 15 SI MM NOT_NAMED 1910-03-26 21:00:00 NR -25.1747 45.2644 main 0 0 _____P________ -1 -25.1747 45.2644 99 9 114
1910080S12048 1910 15 SI MM NOT_NAMED 1910-03-27 00:00:00 NR -25.3471 45.7235 main 0 0 _____P________ -1 -25.3471 45.7235 99 9 112
1910080S12048 1910 15 SI MM NOT_NAMED 1910-03-27 03:00:00 NR -25.4883 46.1416 main 24 24 _____P________ -1 -25.4883 46.1416 99 7 110
1910080S12048 1910 15 SI MM NOT_NAMED 1910-03-27 06:00:00 NR -25.6000 46.5000 reunion main 45 44 _____O________ -1 -25.6000 46.5000 99 9.90000 6 109
1910080S12048 1910 15 SI MM NOT_NAMED 1910-03-27 09:00:00 NR -25.6842 46.7848 main 55 55 _____P________ -1 -25.6842 46.7848 99 5 108
1910080S12048 1910 15 SI MM NOT_NAMED 1910-03-27 12:00:00 NR -25.7445 47.0008 main 59 59 _____P________ -1 -25.7445 47.0008 99 4 107
1910080S12048 1910 15 SI MM NOT_NAMED 1910-03-27 15:00:00 NR -25.7844 47.1578 main 78 78 _____P________ -1 -25.7844 47.1578 99 2 105
1910080S12048 1910 15 SI MM NOT_NAMED 1910-03-27 18:00:00 NR -25.8075 47.2655 main 83 83 _____P________ -1 -25.8075 47.2655 99 2 102
1910080S12048 1910 15 SI MM NOT_NAMED 1910-03-27 21:00:00 NR -25.8173 47.3337 main 83 83 _____P________ -1 -25.8173 47.3337 99 1 96
1910080S12048 1910 15 SI MM NOT_NAMED 1910-03-28 00:00:00 NR -25.8171 47.3723 main 87 87 _____P________ -1 -25.8171 47.3723 99 1 83
1910080S12048 1910 15 SI MM NOT_NAMED 1910-03-28 03:00:00 NR -25.8102 47.3911 main 87 87 _____P________ -1 -25.8102 47.3911 99 0 0
1910080S12048 1910 15 SI MM NOT_NAMED 1910-03-28 06:00:00 NR -25.8000 47.4000 reunion main 87 _____O________ -1 -25.8000 47.4000 99 9.90000 0 0

About IBTrACS Database

This database is a web-friendly format of International Best Track Archive for Climate Stewardship (IBTrACS), a global best track data archive curated by NOAA dating back to 1842.

Updated: 2021-10-21